sensor_id;sensor_type;location;lat;lon;timestamp;temperature;humidity
72762;SHT30;60886;55.034;73.150;2023-03-07T00:00:04;-6.15;75.36
72762;SHT30;60886;55.034;73.150;2023-03-07T00:03:14;-6.18;75.16
72762;SHT30;60886;55.034;73.150;2023-03-07T00:06:15;-6.17;75.10
72762;SHT30;60886;55.034;73.150;2023-03-07T00:09:21;-6.15;75.06
72762;SHT30;60886;55.034;73.150;2023-03-07T00:12:30;-6.15;74.92
72762;SHT30;60886;55.034;73.150;2023-03-07T00:15:32;-6.17;74.70
72762;SHT30;60886;55.034;73.150;2023-03-07T00:18:34;-6.14;74.77
72762;SHT30;60886;55.034;73.150;2023-03-07T00:21:35;-6.28;75.08
72762;SHT30;60886;55.034;73.150;2023-03-07T00:24:47;-6.27;75.00
72762;SHT30;60886;55.034;73.150;2023-03-07T00:27:48;-6.31;75.43
72762;SHT30;60886;55.034;73.150;2023-03-07T00:30:51;-6.34;75.34
72762;SHT30;60886;55.034;73.150;2023-03-07T00:33:57;-6.44;74.96
72762;SHT30;60886;55.034;73.150;2023-03-07T00:37:05;-6.30;75.24
72762;SHT30;60886;55.034;73.150;2023-03-07T00:40:07;-6.24;74.92
72762;SHT30;60886;55.034;73.150;2023-03-07T00:43:09;-6.23;73.97
72762;SHT30;60886;55.034;73.150;2023-03-07T00:46:22;-6.31;74.66
72762;SHT30;60886;55.034;73.150;2023-03-07T00:49:25;-6.37;74.27
72762;SHT30;60886;55.034;73.150;2023-03-07T00:52:26;-6.40;74.80
72762;SHT30;60886;55.034;73.150;2023-03-07T00:55:28;-6.38;74.56
72762;SHT30;60886;55.034;73.150;2023-03-07T00:58:32;-6.37;74.29
72762;SHT30;60886;55.034;73.150;2023-03-07T01:01:34;-6.42;74.63
72762;SHT30;60886;55.034;73.150;2023-03-07T01:04:35;-6.52;74.88
72762;SHT30;60886;55.034;73.150;2023-03-07T01:07:37;-6.47;74.02
72762;SHT30;60886;55.034;73.150;2023-03-07T01:10:39;-6.52;74.73
72762;SHT30;60886;55.034;73.150;2023-03-07T01:13:41;-6.57;74.69
72762;SHT30;60886;55.034;73.150;2023-03-07T01:16:43;-6.60;75.12
72762;SHT30;60886;55.034;73.150;2023-03-07T01:19:45;-6.54;74.75
72762;SHT30;60886;55.034;73.150;2023-03-07T01:22:46;-6.48;74.65
72762;SHT30;60886;55.034;73.150;2023-03-07T01:25:58;-6.57;74.49
72762;SHT30;60886;55.034;73.150;2023-03-07T01:29:01;-6.62;74.56
72762;SHT30;60886;55.034;73.150;2023-03-07T01:32:06;-6.71;74.74
72762;SHT30;60886;55.034;73.150;2023-03-07T01:35:08;-6.67;75.25
72762;SHT30;60886;55.034;73.150;2023-03-07T01:38:09;-6.62;74.54
72762;SHT30;60886;55.034;73.150;2023-03-07T01:41:12;-6.51;74.35
72762;SHT30;60886;55.034;73.150;2023-03-07T01:44:21;-6.54;73.58
72762;SHT30;60886;55.034;73.150;2023-03-07T01:47:22;-6.75;74.24
72762;SHT30;60886;55.034;73.150;2023-03-07T01:50:31;-6.85;75.10
72762;SHT30;60886;55.034;73.150;2023-03-07T01:53:33;-6.98;75.14
72762;SHT30;60886;55.034;73.150;2023-03-07T01:56:36;-7.05;75.36
72762;SHT30;60886;55.034;73.150;2023-03-07T01:59:42;-7.19;75.59
72762;SHT30;60886;55.034;73.150;2023-03-07T02:02:50;-7.27;75.38
72762;SHT30;60886;55.034;73.150;2023-03-07T02:05:57;-7.34;75.63
72762;SHT30;60886;55.034;73.150;2023-03-07T02:08:59;-7.37;76.49
72762;SHT30;60886;55.034;73.150;2023-03-07T02:12:03;-7.32;76.14
72762;SHT30;60886;55.034;73.150;2023-03-07T02:15:25;-7.33;76.39
72762;SHT30;60886;55.034;73.150;2023-03-07T02:18:29;-7.26;76.33
72762;SHT30;60886;55.034;73.150;2023-03-07T02:21:42;-7.19;75.82
72762;SHT30;60886;55.034;73.150;2023-03-07T02:24:53;-7.15;75.32
72762;SHT30;60886;55.034;73.150;2023-03-07T02:27:57;-7.20;75.37
72762;SHT30;60886;55.034;73.150;2023-03-07T02:31:09;-7.18;75.52
72762;SHT30;60886;55.034;73.150;2023-03-07T02:34:25;-7.08;75.38
72762;SHT30;60886;55.034;73.150;2023-03-07T02:37:58;-7.10;75.36
72762;SHT30;60886;55.034;73.150;2023-03-07T02:41:01;-7.05;75.60
72762;SHT30;60886;55.034;73.150;2023-03-07T02:44:04;-7.13;74.85
72762;SHT30;60886;55.034;73.150;2023-03-07T02:47:06;-7.16;75.83
72762;SHT30;60886;55.034;73.150;2023-03-07T02:50:18;-7.13;75.42
72762;SHT30;60886;55.034;73.150;2023-03-07T02:53:24;-7.08;74.89
72762;SHT30;60886;55.034;73.150;2023-03-07T02:56:25;-6.98;74.96
72762;SHT30;60886;55.034;73.150;2023-03-07T02:59:27;-6.99;74.50
72762;SHT30;60886;55.034;73.150;2023-03-07T03:02:28;-7.02;75.03
72762;SHT30;60886;55.034;73.150;2023-03-07T03:05:30;-6.98;74.52
72762;SHT30;60886;55.034;73.150;2023-03-07T03:08:31;-7.02;74.86
72762;SHT30;60886;55.034;73.150;2023-03-07T03:11:33;-6.72;74.66
72762;SHT30;60886;55.034;73.150;2023-03-07T03:14:39;-6.61;74.39
72762;SHT30;60886;55.034;73.150;2023-03-07T03:17:41;-6.54;74.18
72762;SHT30;60886;55.034;73.150;2023-03-07T03:20:48;-6.25;73.30
72762;SHT30;60886;55.034;73.150;2023-03-07T03:23:54;-6.09;73.50
72762;SHT30;60886;55.034;73.150;2023-03-07T03:27:02;-5.82;73.01
72762;SHT30;60886;55.034;73.150;2023-03-07T03:30:07;-5.76;72.41
72762;SHT30;60886;55.034;73.150;2023-03-07T03:33:09;-5.52;72.19
72762;SHT30;60886;55.034;73.150;2023-03-07T03:36:16;-5.66;72.15
72762;SHT30;60886;55.034;73.150;2023-03-07T03:39:20;-5.58;72.03
72762;SHT30;60886;55.034;73.150;2023-03-07T03:42:27;-5.55;71.76
72762;SHT30;60886;55.034;73.150;2023-03-07T03:45:28;-5.49;71.77
72762;SHT30;60886;55.034;73.150;2023-03-07T03:48:40;-5.38;71.45
72762;SHT30;60886;55.034;73.150;2023-03-07T03:51:42;-5.21;71.07
72762;SHT30;60886;55.034;73.150;2023-03-07T03:54:43;-4.98;71.05
72762;SHT30;60886;55.034;73.150;2023-03-07T03:57:45;-4.80;70.71
72762;SHT30;60886;55.034;73.150;2023-03-07T04:00:47;-4.56;69.69
72762;SHT30;60886;55.034;73.150;2023-03-07T04:03:50;-4.46;70.82
72762;SHT30;60886;55.034;73.150;2023-03-07T04:06:51;-4.30;70.38
72762;SHT30;60886;55.034;73.150;2023-03-07T04:09:53;-4.28;68.86
72762;SHT30;60886;55.034;73.150;2023-03-07T04:13:00;-4.09;69.04
72762;SHT30;60886;55.034;73.150;2023-03-07T04:16:12;-4.05;68.97
72762;SHT30;60886;55.034;73.150;2023-03-07T04:19:14;-3.85;68.87
72762;SHT30;60886;55.034;73.150;2023-03-07T04:22:19;-3.77;68.45
72762;SHT30;60886;55.034;73.150;2023-03-07T04:25:22;-3.78;68.89
72762;SHT30;60886;55.034;73.150;2023-03-07T04:28:29;-3.58;68.46
72762;SHT30;60886;55.034;73.150;2023-03-07T04:32:04;-3.70;67.77
72762;SHT30;60886;55.034;73.150;2023-03-07T04:35:10;-3.60;68.07
72762;SHT30;60886;55.034;73.150;2023-03-07T04:38:17;-3.42;68.81
72762;SHT30;60886;55.034;73.150;2023-03-07T04:41:21;-3.30;67.73
72762;SHT30;60886;55.034;73.150;2023-03-07T04:44:32;-3.00;67.00
72762;SHT30;60886;55.034;73.150;2023-03-07T04:47:34;-2.96;67.18
72762;SHT30;60886;55.034;73.150;2023-03-07T04:50:37;-2.88;67.10
72762;SHT30;60886;55.034;73.150;2023-03-07T04:53:48;-2.78;66.61
72762;SHT30;60886;55.034;73.150;2023-03-07T04:57:02;-2.59;64.81
72762;SHT30;60886;55.034;73.150;2023-03-07T05:00:04;-2.73;65.46
72762;SHT30;60886;55.034;73.150;2023-03-07T05:03:12;-2.78;66.38
72762;SHT30;60886;55.034;73.150;2023-03-07T05:06:19;-2.81;66.59
72762;SHT30;60886;55.034;73.150;2023-03-07T05:09:30;-2.99;67.68
72762;SHT30;60886;55.034;73.150;2023-03-07T05:12:33;-3.10;67.55
72762;SHT30;60886;55.034;73.150;2023-03-07T05:15:42;-2.83;67.21
72762;SHT30;60886;55.034;73.150;2023-03-07T05:18:49;-2.65;66.36
72762;SHT30;60886;55.034;73.150;2023-03-07T05:22:02;-2.31;64.88
72762;SHT30;60886;55.034;73.150;2023-03-07T05:25:10;-2.47;64.99
72762;SHT30;60886;55.034;73.150;2023-03-07T05:28:11;-2.47;65.20
72762;SHT30;60886;55.034;73.150;2023-03-07T05:31:13;-2.31;65.68
72762;SHT30;60886;55.034;73.150;2023-03-07T05:34:14;-2.10;64.83
72762;SHT30;60886;55.034;73.150;2023-03-07T05:37:26;-2.04;64.76
72762;SHT30;60886;55.034;73.150;2023-03-07T05:40:33;-2.11;64.17
72762;SHT30;60886;55.034;73.150;2023-03-07T05:43:45;-1.98;64.87
72762;SHT30;60886;55.034;73.150;2023-03-07T05:46:47;-1.74;64.41
72762;SHT30;60886;55.034;73.150;2023-03-07T05:49:48;-1.94;64.12
72762;SHT30;60886;55.034;73.150;2023-03-07T05:52:50;-1.69;64.18
72762;SHT30;60886;55.034;73.150;2023-03-07T05:55:53;-1.80;62.79
72762;SHT30;60886;55.034;73.150;2023-03-07T05:59:05;-1.52;63.46
72762;SHT30;60886;55.034;73.150;2023-03-07T06:02:11;-1.65;64.18
72762;SHT30;60886;55.034;73.150;2023-03-07T06:05:13;-1.53;63.53
72762;SHT30;60886;55.034;73.150;2023-03-07T06:08:15;-1.19;62.93
72762;SHT30;60886;55.034;73.150;2023-03-07T06:11:33;-0.92;62.51
72762;SHT30;60886;55.034;73.150;2023-03-07T06:14:38;-0.91;61.57
72762;SHT30;60886;55.034;73.150;2023-03-07T06:17:48;-1.19;62.78
72762;SHT30;60886;55.034;73.150;2023-03-07T06:21:05;-1.36;63.54
72762;SHT30;60886;55.034;73.150;2023-03-07T06:24:11;-1.53;64.37
72762;SHT30;60886;55.034;73.150;2023-03-07T06:27:13;-1.76;63.68
72762;SHT30;60886;55.034;73.150;2023-03-07T06:30:15;-1.70;65.54
72762;SHT30;60886;55.034;73.150;2023-03-07T06:33:17;-1.76;65.39
72762;SHT30;60886;55.034;73.150;2023-03-07T06:36:24;-1.72;65.03
72762;SHT30;60886;55.034;73.150;2023-03-07T06:39:32;-1.70;64.95
72762;SHT30;60886;55.034;73.150;2023-03-07T06:42:36;-1.65;65.41
72762;SHT30;60886;55.034;73.150;2023-03-07T06:45:49;-1.60;65.34
72762;SHT30;60886;55.034;73.150;2023-03-07T06:48:50;-1.51;64.59
72762;SHT30;60886;55.034;73.150;2023-03-07T06:52:04;-1.51;64.48
72762;SHT30;60886;55.034;73.150;2023-03-07T06:55:07;-1.42;64.40
72762;SHT30;60886;55.034;73.150;2023-03-07T06:58:19;-1.59;63.67
72762;SHT30;60886;55.034;73.150;2023-03-07T07:01:21;-1.66;65.39
72762;SHT30;60886;55.034;73.150;2023-03-07T07:04:35;-1.70;65.82
72762;SHT30;60886;55.034;73.150;2023-03-07T07:07:47;-1.58;65.74
72762;SHT30;60886;55.034;73.150;2023-03-07T07:10:51;-1.35;65.22
72762;SHT30;60886;55.034;73.150;2023-03-07T07:13:53;-1.34;65.95
72762;SHT30;60886;55.034;73.150;2023-03-07T07:17:02;-1.35;63.28
72762;SHT30;60886;55.034;73.150;2023-03-07T07:20:05;-1.55;64.35
72762;SHT30;60886;55.034;73.150;2023-03-07T07:23:17;-1.72;64.35
72762;SHT30;60886;55.034;73.150;2023-03-07T07:26:21;-1.72;65.35
72762;SHT30;60886;55.034;73.150;2023-03-07T07:29:38;-1.67;65.06
72762;SHT30;60886;55.034;73.150;2023-03-07T07:32:45;-1.65;65.01
72762;SHT30;60886;55.034;73.150;2023-03-07T07:35:46;-1.55;64.60
72762;SHT30;60886;55.034;73.150;2023-03-07T07:38:49;-1.38;65.50
72762;SHT30;60886;55.034;73.150;2023-03-07T07:41:50;-1.38;64.68
72762;SHT30;60886;55.034;73.150;2023-03-07T07:45:00;-1.34;64.55
72762;SHT30;60886;55.034;73.150;2023-03-07T07:48:13;-1.25;64.52
72762;SHT30;60886;55.034;73.150;2023-03-07T07:51:15;-1.18;64.08
72762;SHT30;60886;55.034;73.150;2023-03-07T07:54:17;-0.98;64.26
72762;SHT30;60886;55.034;73.150;2023-03-07T07:57:18;-1.04;64.60
72762;SHT30;60886;55.034;73.150;2023-03-07T08:00:20;-0.90;65.08
72762;SHT30;60886;55.034;73.150;2023-03-07T08:03:21;-0.84;63.52
72762;SHT30;60886;55.034;73.150;2023-03-07T08:06:25;-0.83;64.06
72762;SHT30;60886;55.034;73.150;2023-03-07T08:09:32;-0.78;63.85
72762;SHT30;60886;55.034;73.150;2023-03-07T08:12:35;-0.76;63.67
72762;SHT30;60886;55.034;73.150;2023-03-07T08:15:47;-0.88;64.06
72762;SHT30;60886;55.034;73.150;2023-03-07T08:18:55;-0.87;64.41
72762;SHT30;60886;55.034;73.150;2023-03-07T08:22:07;-0.80;64.92
72762;SHT30;60886;55.034;73.150;2023-03-07T08:25:17;-0.66;64.44
72762;SHT30;60886;55.034;73.150;2023-03-07T08:28:25;-0.56;64.14
72762;SHT30;60886;55.034;73.150;2023-03-07T08:31:26;-0.50;64.30
72762;SHT30;60886;55.034;73.150;2023-03-07T08:34:28;-0.43;64.77
72762;SHT30;60886;55.034;73.150;2023-03-07T08:37:32;-0.40;63.70
72762;SHT30;60886;55.034;73.150;2023-03-07T08:40:34;-0.36;63.16
72762;SHT30;60886;55.034;73.150;2023-03-07T08:43:36;-0.37;63.24
72762;SHT30;60886;55.034;73.150;2023-03-07T08:46:39;-0.37;63.78
72762;SHT30;60886;55.034;73.150;2023-03-07T08:49:40;-0.38;63.96
72762;SHT30;60886;55.034;73.150;2023-03-07T08:52:42;-0.15;64.52
72762;SHT30;60886;55.034;73.150;2023-03-07T08:55:54;0.09;64.10
72762;SHT30;60886;55.034;73.150;2023-03-07T08:59:00;0.29;64.05
72762;SHT30;60886;55.034;73.150;2023-03-07T09:02:02;0.49;63.39
72762;SHT30;60886;55.034;73.150;2023-03-07T09:05:04;0.44;62.46
72762;SHT30;60886;55.034;73.150;2023-03-07T09:08:06;0.63;62.55
72762;SHT30;60886;55.034;73.150;2023-03-07T09:11:08;0.69;61.96
72762;SHT30;60886;55.034;73.150;2023-03-07T09:14:09;0.68;61.99
72762;SHT30;60886;55.034;73.150;2023-03-07T09:17:11;0.84;61.49
72762;SHT30;60886;55.034;73.150;2023-03-07T09:20:12;0.89;62.00
72762;SHT30;60886;55.034;73.150;2023-03-07T09:23:26;1.00;61.52
72762;SHT30;60886;55.034;73.150;2023-03-07T09:26:27;1.10;61.40
72762;SHT30;60886;55.034;73.150;2023-03-07T09:29:29;1.04;60.75
72762;SHT30;60886;55.034;73.150;2023-03-07T09:32:33;1.05;61.54
72762;SHT30;60886;55.034;73.150;2023-03-07T09:35:34;1.11;61.60
72762;SHT30;60886;55.034;73.150;2023-03-07T09:38:36;1.20;61.55
72762;SHT30;60886;55.034;73.150;2023-03-07T09:41:53;1.13;61.89
72762;SHT30;60886;55.034;73.150;2023-03-07T09:48:49;0.90;62.50
72762;SHT30;60886;55.034;73.150;2023-03-07T09:52:10;0.80;62.44
72762;SHT30;60886;55.034;73.150;2023-03-07T09:55:18;0.58;62.42
72762;SHT30;60886;55.034;73.150;2023-03-07T09:58:31;0.44;62.65
72762;SHT30;60886;55.034;73.150;2023-03-07T10:01:39;0.45;63.12
72762;SHT30;60886;55.034;73.150;2023-03-07T10:08:04;0.41;63.21
72762;SHT30;60886;55.034;73.150;2023-03-07T10:14:49;0.33;62.22
72762;SHT30;60886;55.034;73.150;2023-03-07T10:18:23;0.29;62.74
72762;SHT30;60886;55.034;73.150;2023-03-07T10:28:01;0.09;63.04
72762;SHT30;60886;55.034;73.150;2023-03-07T10:31:24;0.05;63.07
72762;SHT30;60886;55.034;73.150;2023-03-07T10:34:35;-0.13;64.01
72762;SHT30;60886;55.034;73.150;2023-03-07T10:38:09;-0.13;63.58
72762;SHT30;60886;55.034;73.150;2023-03-07T10:41:15;0.04;63.44
72762;SHT30;60886;55.034;73.150;2023-03-07T10:44:31;0.04;63.14
72762;SHT30;60886;55.034;73.150;2023-03-07T10:47:33;-0.03;63.61
72762;SHT30;60886;55.034;73.150;2023-03-07T10:50:54;-0.03;63.08
72762;SHT30;60886;55.034;73.150;2023-03-07T10:53:57;-0.05;64.03
72762;SHT30;60886;55.034;73.150;2023-03-07T10:57:16;-0.09;63.89
72762;SHT30;60886;55.034;73.150;2023-03-07T11:00:28;-0.12;63.43
72762;SHT30;60886;55.034;73.150;2023-03-07T11:07:35;-0.22;65.00
72762;SHT30;60886;55.034;73.150;2023-03-07T11:10:40;-0.16;64.92
72762;SHT30;60886;55.034;73.150;2023-03-07T11:14:05;-0.22;65.14
72762;SHT30;60886;55.034;73.150;2023-03-07T11:17:24;-0.27;65.14
72762;SHT30;60886;55.034;73.150;2023-03-07T11:20:47;-0.22;64.71
72762;SHT30;60886;55.034;73.150;2023-03-07T11:23:58;-0.20;64.75
72762;SHT30;60886;55.034;73.150;2023-03-07T11:27:02;-0.34;63.78
72762;SHT30;60886;55.034;73.150;2023-03-07T11:30:42;-0.38;63.58
72762;SHT30;60886;55.034;73.150;2023-03-07T11:34:04;-0.44;63.90
72762;SHT30;60886;55.034;73.150;2023-03-07T11:47:33;-0.67;64.93
72762;SHT30;60886;55.034;73.150;2023-03-07T11:50:46;-0.66;65.32
72762;SHT30;60886;55.034;73.150;2023-03-07T12:07:11;-1.02;65.77
72762;SHT30;60886;55.034;73.150;2023-03-07T12:13:36;-1.24;66.15
72762;SHT30;60886;55.034;73.150;2023-03-07T12:23:19;-1.39;67.08
72762;SHT30;60886;55.034;73.150;2023-03-07T12:26:36;-1.46;67.16
72762;SHT30;60886;55.034;73.150;2023-03-07T12:30:00;-1.52;67.38
72762;SHT30;60886;55.034;73.150;2023-03-07T12:33:03;-1.63;67.65
72762;SHT30;60886;55.034;73.150;2023-03-07T12:36:10;-1.76;68.01
72762;SHT30;60886;55.034;73.150;2023-03-07T12:45:51;-1.80;68.47
72762;SHT30;60886;55.034;73.150;2023-03-07T12:49:23;-1.86;68.28
72762;SHT30;60886;55.034;73.150;2023-03-07T12:52:38;-1.94;68.69
72762;SHT30;60886;55.034;73.150;2023-03-07T12:59:14;-1.91;68.99
72762;SHT30;60886;55.034;73.150;2023-03-07T13:02:21;-1.97;69.15
72762;SHT30;60886;55.034;73.150;2023-03-07T13:05:36;-1.93;69.18
72762;SHT30;60886;55.034;73.150;2023-03-07T13:08:46;-1.96;69.16
72762;SHT30;60886;55.034;73.150;2023-03-07T13:18:27;-2.10;69.67
72762;SHT30;60886;55.034;73.150;2023-03-07T13:21:32;-2.10;69.85
72762;SHT30;60886;55.034;73.150;2023-03-07T13:24:45;-2.10;69.69
72762;SHT30;60886;55.034;73.150;2023-03-07T13:27:56;-2.10;69.83
72762;SHT30;60886;55.034;73.150;2023-03-07T13:34:44;-2.10;69.80
72762;SHT30;60886;55.034;73.150;2023-03-07T13:37:56;-2.14;69.52
72762;SHT30;60886;55.034;73.150;2023-03-07T13:41:03;-2.15;69.85
72762;SHT30;60886;55.034;73.150;2023-03-07T13:44:49;-2.18;70.02
72762;SHT30;60886;55.034;73.150;2023-03-07T13:47:50;-2.24;70.37
72762;SHT30;60886;55.034;73.150;2023-03-07T13:54:01;-2.27;71.30
72762;SHT30;60886;55.034;73.150;2023-03-07T13:57:04;-2.31;72.43
72762;SHT30;60886;55.034;73.150;2023-03-07T14:00:21;-2.44;73.68
72762;SHT30;60886;55.034;73.150;2023-03-07T14:03:34;-2.51;75.10
72762;SHT30;60886;55.034;73.150;2023-03-07T14:06:42;-2.62;76.42
72762;SHT30;60886;55.034;73.150;2023-03-07T14:10:02;-2.68;77.14
72762;SHT30;60886;55.034;73.150;2023-03-07T14:13:35;-2.79;78.01
72762;SHT30;60886;55.034;73.150;2023-03-07T14:27:04;-2.91;80.23
72762;SHT30;60886;55.034;73.150;2023-03-07T14:30:15;-2.92;80.69
72762;SHT30;60886;55.034;73.150;2023-03-07T14:33:35;-2.96;81.11
72762;SHT30;60886;55.034;73.150;2023-03-07T14:37:11;-2.82;81.32
72762;SHT30;60886;55.034;73.150;2023-03-07T14:40:26;-2.82;80.72
72762;SHT30;60886;55.034;73.150;2023-03-07T14:50:44;-2.82;82.02
72762;SHT30;60886;55.034;73.150;2023-03-07T14:53:46;-2.85;81.82
72762;SHT30;60886;55.034;73.150;2023-03-07T14:57:02;-2.85;82.21
72762;SHT30;60886;55.034;73.150;2023-03-07T15:03:29;-2.73;82.66
72762;SHT30;60886;55.034;73.150;2023-03-07T15:06:42;-2.75;82.98
72762;SHT30;60886;55.034;73.150;2023-03-07T15:09:48;-2.73;83.43
72762;SHT30;60886;55.034;73.150;2023-03-07T15:12:52;-2.69;83.51
72762;SHT30;60886;55.034;73.150;2023-03-07T15:15:59;-2.69;83.27
72762;SHT30;60886;55.034;73.150;2023-03-07T15:19:17;-2.69;83.36
72762;SHT30;60886;55.034;73.150;2023-03-07T15:22:33;-2.58;83.59
72762;SHT30;60886;55.034;73.150;2023-03-07T15:25:39;-2.62;82.86
72762;SHT30;60886;55.034;73.150;2023-03-07T15:28:47;-2.57;83.13
72762;SHT30;60886;55.034;73.150;2023-03-07T15:35:13;-2.58;82.67
72762;SHT30;60886;55.034;73.150;2023-03-07T15:38:26;-2.58;82.77
72762;SHT30;60886;55.034;73.150;2023-03-07T15:41:35;-2.65;83.14
72762;SHT30;60886;55.034;73.150;2023-03-07T15:44:37;-2.72;83.02
72762;SHT30;60886;55.034;73.150;2023-03-07T15:47:39;-2.83;83.52
72762;SHT30;60886;55.034;73.150;2023-03-07T15:50:53;-2.88;84.18
72762;SHT30;60886;55.034;73.150;2023-03-07T15:57:34;-2.86;84.35
72762;SHT30;60886;55.034;73.150;2023-03-07T16:00:39;-2.86;84.48
72762;SHT30;60886;55.034;73.150;2023-03-07T16:03:54;-2.83;85.06
72762;SHT30;60886;55.034;73.150;2023-03-07T16:07:02;-2.82;85.16
72762;SHT30;60886;55.034;73.150;2023-03-07T16:10:04;-2.76;85.45
72762;SHT30;60886;55.034;73.150;2023-03-07T16:13:08;-2.75;85.29
72762;SHT30;60886;55.034;73.150;2023-03-07T16:19:24;-2.64;86.04
72762;SHT30;60886;55.034;73.150;2023-03-07T16:22:31;-2.57;86.22
72762;SHT30;60886;55.034;73.150;2023-03-07T16:25:33;-2.58;86.06
72762;SHT30;60886;55.034;73.150;2023-03-07T16:28:34;-2.57;86.62
72762;SHT30;60886;55.034;73.150;2023-03-07T16:31:36;-2.59;87.00
72762;SHT30;60886;55.034;73.150;2023-03-07T16:34:40;-2.59;87.45
72762;SHT30;60886;55.034;73.150;2023-03-07T16:37:53;-2.68;87.49
72762;SHT30;60886;55.034;73.150;2023-03-07T16:41:02;-2.61;87.86
72762;SHT30;60886;55.034;73.150;2023-03-07T16:44:19;-2.59;88.17
72762;SHT30;60886;55.034;73.150;2023-03-07T16:47:21;-2.55;88.33
72762;SHT30;60886;55.034;73.150;2023-03-07T16:50:28;-2.54;88.58
72762;SHT30;60886;55.034;73.150;2023-03-07T16:53:30;-2.44;88.90
72762;SHT30;60886;55.034;73.150;2023-03-07T16:56:44;-2.36;89.10
72762;SHT30;60886;55.034;73.150;2023-03-07T16:59:48;-2.27;89.18
72762;SHT30;60886;55.034;73.150;2023-03-07T17:03:00;-2.24;89.11
72762;SHT30;60886;55.034;73.150;2023-03-07T17:06:03;-2.21;89.10
72762;SHT30;60886;55.034;73.150;2023-03-07T17:09:11;-2.17;89.16
72762;SHT30;60886;55.034;73.150;2023-03-07T17:12:14;-2.14;89.06
72762;SHT30;60886;55.034;73.150;2023-03-07T17:15:20;-2.15;88.91
72762;SHT30;60886;55.034;73.150;2023-03-07T17:18:22;-2.21;88.76
72762;SHT30;60886;55.034;73.150;2023-03-07T17:21:24;-2.28;88.63
72762;SHT30;60886;55.034;73.150;2023-03-07T17:24:27;-2.27;88.80
72762;SHT30;60886;55.034;73.150;2023-03-07T17:27:31;-2.33;88.66
72762;SHT30;60886;55.034;73.150;2023-03-07T17:30:32;-2.38;88.48
72762;SHT30;60886;55.034;73.150;2023-03-07T17:33:34;-2.44;88.48
72762;SHT30;60886;55.034;73.150;2023-03-07T17:36:35;-2.45;88.54
72762;SHT30;60886;55.034;73.150;2023-03-07T17:39:50;-2.51;88.51
72762;SHT30;60886;55.034;73.150;2023-03-07T17:42:54;-2.55;88.40
72762;SHT30;60886;55.034;73.150;2023-03-07T17:45:57;-2.59;88.42
72762;SHT30;60886;55.034;73.150;2023-03-07T17:48:58;-2.61;88.49
72762;SHT30;60886;55.034;73.150;2023-03-07T17:52:05;-2.58;88.76
72762;SHT30;60886;55.034;73.150;2023-03-07T17:55:13;-2.61;88.82
72762;SHT30;60886;55.034;73.150;2023-03-07T17:58:15;-2.62;88.85
72762;SHT30;60886;55.034;73.150;2023-03-07T18:01:17;-2.62;88.92
72762;SHT30;60886;55.034;73.150;2023-03-07T18:04:18;-2.62;89.03
72762;SHT30;60886;55.034;73.150;2023-03-07T18:07:24;-2.61;89.11
72762;SHT30;60886;55.034;73.150;2023-03-07T18:10:26;-2.62;89.24
72762;SHT30;60886;55.034;73.150;2023-03-07T18:13:28;-2.62;89.28
72762;SHT30;60886;55.034;73.150;2023-03-07T18:16:34;-2.61;89.28
72762;SHT30;60886;55.034;73.150;2023-03-07T18:19:37;-2.62;89.27
72762;SHT30;60886;55.034;73.150;2023-03-07T18:22:49;-2.66;89.31
72762;SHT30;60886;55.034;73.150;2023-03-07T18:25:59;-2.62;89.46
72762;SHT30;60886;55.034;73.150;2023-03-07T18:29:00;-2.61;89.59
72762;SHT30;60886;55.034;73.150;2023-03-07T18:32:02;-2.55;89.67
72762;SHT30;60886;55.034;73.150;2023-03-07T18:35:07;-2.48;89.74
72762;SHT30;60886;55.034;73.150;2023-03-07T18:38:08;-2.45;89.74
72762;SHT30;60886;55.034;73.150;2023-03-07T18:41:12;-2.38;89.73
72762;SHT30;60886;55.034;73.150;2023-03-07T18:44:13;-2.36;89.72
72762;SHT30;60886;55.034;73.150;2023-03-07T18:47:28;-2.31;89.70
72762;SHT30;60886;55.034;73.150;2023-03-07T18:50:35;-2.30;89.65
72762;SHT30;60886;55.034;73.150;2023-03-07T18:53:37;-2.27;89.61
72762;SHT30;60886;55.034;73.150;2023-03-07T18:56:45;-2.27;89.50
72762;SHT30;60886;55.034;73.150;2023-03-07T18:59:46;-2.28;89.45
72762;SHT30;60886;55.034;73.150;2023-03-07T19:02:48;-2.28;89.40
72762;SHT30;60886;55.034;73.150;2023-03-07T19:05:53;-2.33;89.38
72762;SHT30;60886;55.034;73.150;2023-03-07T19:09:02;-2.36;89.36
72762;SHT30;60886;55.034;73.150;2023-03-07T19:12:08;-2.38;89.35
72762;SHT30;60886;55.034;73.150;2023-03-07T19:15:10;-2.42;89.39
72762;SHT30;60886;55.034;73.150;2023-03-07T19:18:11;-2.47;89.35
72762;SHT30;60886;55.034;73.150;2023-03-07T19:21:17;-2.49;89.41
72762;SHT30;60886;55.034;73.150;2023-03-07T19:24:19;-2.49;89.48
72762;SHT30;60886;55.034;73.150;2023-03-07T19:27:20;-2.51;89.58
72762;SHT30;60886;55.034;73.150;2023-03-07T19:30:21;-2.51;89.62
72762;SHT30;60886;55.034;73.150;2023-03-07T19:33:24;-2.51;89.68
72762;SHT30;60886;55.034;73.150;2023-03-07T19:36:35;-2.57;89.63
72762;SHT30;60886;55.034;73.150;2023-03-07T19:39:42;-2.55;89.64
72762;SHT30;60886;55.034;73.150;2023-03-07T19:42:43;-2.54;89.72
72762;SHT30;60886;55.034;73.150;2023-03-07T19:45:53;-2.54;89.62
72762;SHT30;60886;55.034;73.150;2023-03-07T19:48:55;-2.57;89.63
72762;SHT30;60886;55.034;73.150;2023-03-07T19:52:07;-2.54;89.64
72762;SHT30;60886;55.034;73.150;2023-03-07T19:55:08;-2.57;89.65
72762;SHT30;60886;55.034;73.150;2023-03-07T19:58:10;-2.52;89.67
72762;SHT30;60886;55.034;73.150;2023-03-07T20:01:17;-2.55;89.56
72762;SHT30;60886;55.034;73.150;2023-03-07T20:04:28;-2.62;89.29
72762;SHT30;60886;55.034;73.150;2023-03-07T20:07:30;-2.65;89.16
72762;SHT30;60886;55.034;73.150;2023-03-07T20:10:31;-2.75;89.05
72762;SHT30;60886;55.034;73.150;2023-03-07T20:13:40;-2.79;88.96
72762;SHT30;60886;55.034;73.150;2023-03-07T20:16:41;-2.82;88.88
72762;SHT30;60886;55.034;73.150;2023-03-07T20:19:53;-2.85;88.82
72762;SHT30;60886;55.034;73.150;2023-03-07T20:23:00;-2.82;88.91
72762;SHT30;60886;55.034;73.150;2023-03-07T20:26:11;-2.79;88.96
72762;SHT30;60886;55.034;73.150;2023-03-07T20:29:13;-2.83;88.84
72762;SHT30;60886;55.034;73.150;2023-03-07T20:32:14;-2.81;88.85
72762;SHT30;60886;55.034;73.150;2023-03-07T20:35:21;-2.79;88.80
72762;SHT30;60886;55.034;73.150;2023-03-07T20:38:23;-2.83;88.76
72762;SHT30;60886;55.034;73.150;2023-03-07T20:41:31;-2.85;88.74
72762;SHT30;60886;55.034;73.150;2023-03-07T20:44:42;-2.86;88.77
72762;SHT30;60886;55.034;73.150;2023-03-07T20:47:44;-2.88;88.80
72762;SHT30;60886;55.034;73.150;2023-03-07T20:50:50;-2.89;88.73
72762;SHT30;60886;55.034;73.150;2023-03-07T20:53:59;-2.92;88.73
72762;SHT30;60886;55.034;73.150;2023-03-07T20:57:02;-2.92;88.71
72762;SHT30;60886;55.034;73.150;2023-03-07T21:00:03;-2.93;88.71
72762;SHT30;60886;55.034;73.150;2023-03-07T21:03:11;-2.88;88.72
72762;SHT30;60886;55.034;73.150;2023-03-07T21:06:14;-2.92;88.69
72762;SHT30;60886;55.034;73.150;2023-03-07T21:09:21;-2.89;88.69
72762;SHT30;60886;55.034;73.150;2023-03-07T21:12:25;-2.86;88.69